Terminal Aerodrome Forecast
Issued by NWS Los Angeles, CA

Home | Current Version | Previous Version | Text Only | Print | Product List | Glossary On
Versions: 1 2 3 4 5 6 7 8 9 10 11 12 13 14 15 16 17
000
FTUS46 KLOX 240300 AAA
TAFSMX
TAF AMD
KSMX 240327Z 2403/2424 30012KT P6SM SKC
     FM240400 30008KT P6SM SCT007
     FM240530 30006KT 6SM BR BKN007
     FM241000 VRB03KT 4SM BR BKN004
     FM241500 30008KT P6SM SKC
     FM241800 30012KT P6SM SKC
     FM242000 30018G28KT P6SM SKC=

USA.gov is the U.S. government's official web portal to all federal, state and local government web resources and services.